Time;durP1;ratioP1;P1;durP2;ratioP2;P2;SDS_P1;SDS_P2;PMS_P1;PMS_P2;Temp;Humidity;BMP_temperature;BMP_pressure;BME280_temperature;BME280_humidity;BME280_pressure;Samples;Min_cycle;Max_cycle;Signal;HPM_P1;HPM_P2
2022/03/08 00:02:58;;;;;;;13.02;5.05;;;;;;;2.15;95.63;101243.63;10253101;28;20422;-67
2022/03/08 00:08:02;;;;;;;10.97;4.40;;;;;;;2.17;95.54;101245.41;10251764;28;20420;-68
2022/03/08 00:13:06;;;;;;;10.55;4.30;;;;;;;2.16;95.84;101248.78;10252171;28;20423;-68
2022/03/08 00:18:10;;;;;;;11.00;4.77;;;;;;;2.14;96.58;101229.94;10252396;28;20420;-67
2022/03/08 00:23:13;;;;;;;11.95;4.38;;;;;;;2.10;95.49;101222.97;10247922;28;20424;-69
2022/03/08 00:28:18;;;;;;;12.37;5.10;;;;;;;1.95;96.25;101214.69;10212336;29;20412;-66
2022/03/08 00:33:21;;;;;;;14.68;4.97;;;;;;;1.83;96.09;101215.94;10212309;29;20746;-67
2022/03/08 00:38:25;;;;;;;13.23;5.00;;;;;;;1.66;97.02;101217.84;10211931;29;20410;-67
2022/03/08 00:43:29;;;;;;;12.32;5.10;;;;;;;1.62;98.43;101233.91;10211845;29;20871;-66
2022/03/08 00:48:33;;;;;;;11.50;4.60;;;;;;;1.54;99.28;101230.13;10211865;29;20741;-69
2022/03/08 00:53:36;;;;;;;11.97;4.60;;;;;;;1.52;99.45;101236.03;10211500;29;20750;-65
2022/03/08 00:58:41;;;;;;;12.32;4.50;;;;;;;1.47;99.26;101232.41;10211542;29;20412;-68
2022/03/08 01:03:44;;;;;;;12.80;4.65;;;;;;;1.33;100.00;101230.97;10214335;29;20418;-68
2022/03/08 01:08:48;;;;;;;12.35;4.93;;;;;;;1.24;100.00;101226.38;10214293;29;20402;-73
2022/03/08 01:13:52;;;;;;;12.27;4.60;;;;;;;1.20;100.00;101224.50;10214080;29;20428;-67
2022/03/08 01:18:55;;;;;;;12.90;4.82;;;;;;;1.14;100.00;101219.09;10214175;29;20408;-69
2022/03/08 01:23:59;;;;;;;10.33;3.60;;;;;;;1.05;100.00;101217.03;10216432;29;20247;-70
2022/03/08 01:29:04;;;;;;;11.50;4.33;;;;;;;1.13;100.00;101213.16;10213828;29;20402;-65
2022/03/08 01:34:07;;;;;;;12.55;4.72;;;;;;;0.96;100.00;101208.16;10214061;29;20421;-65
2022/03/08 01:39:10;;;;;;;10.23;4.40;;;;;;;0.96;100.00;101206.47;10214337;29;20730;-67
2022/03/08 01:44:15;;;;;;;13.55;5.13;;;;;;;0.98;100.00;101209.09;10213714;29;20870;-74
2022/03/08 01:49:18;;;;;;;11.45;5.00;;;;;;;0.96;100.00;101203.03;10213472;29;20521;-69
2022/03/08 01:54:22;;;;;;;14.80;5.05;;;;;;;0.83;100.00;101203.31;10213468;29;20494;-73
2022/03/08 01:59:26;;;;;;;12.82;4.80;;;;;;;0.77;100.00;101208.19;10213814;29;20399;-71
2022/03/08 02:04:33;;;;;;;13.57;5.07;;;;;;;0.71;100.00;101213.91;10213364;29;20913;-68
2022/03/08 02:09:36;;;;;;;11.25;4.85;;;;;;;0.75;100.00;101217.44;10213218;29;20468;-70
2022/03/08 02:14:42;;;;;;;12.15;5.28;;;;;;;0.76;100.00;101216.66;10212987;29;20426;-72
2022/03/08 02:19:46;;;;;;;13.27;5.63;;;;;;;0.74;100.00;101210.63;10213099;29;20410;-68
2022/03/08 02:24:50;;;;;;;12.35;5.78;;;;;;;0.69;100.00;101222.31;10213078;29;20414;-66
2022/03/08 02:29:53;;;;;;;18.20;6.17;;;;;;;0.61;100.00;101224.53;10212957;29;20390;-68
2022/03/08 02:35:04;;;;;;;15.52;6.03;;;;;;;0.62;100.00;101228.81;10219875;29;20425;-66
2022/03/08 02:40:11;;;;;;;8.80;4.60;;;;;;;0.56;100.00;101227.69;10222575;29;20233;-71
2022/03/08 02:45:16;;;;;;;12.83;5.00;;;;;;;0.51;100.00;101235.16;10222347;29;20232;-68
2022/03/08 02:50:20;;;;;;;13.02;5.75;;;;;;;0.48;100.00;101229.03;10219415;29;20404;-67
2022/03/08 02:55:27;;;;;;;12.18;6.03;;;;;;;0.56;100.00;101240.44;10218987;29;20737;-66
2022/03/08 03:00:31;;;;;;;12.90;5.88;;;;;;;0.55;100.00;101249.78;10219016;29;20730;-68
2022/03/08 03:05:35;;;;;;;10.37;4.63;;;;;;;0.52;100.00;101257.31;10221101;29;20271;-68
2022/03/08 03:10:40;;;;;;;11.40;5.17;;;;;;;0.44;100.00;101255.22;10221219;29;20221;-68
2022/03/08 03:15:43;;;;;;;12.43;5.90;;;;;;;0.42;100.00;101256.84;10218595;28;20749;-67
2022/03/08 03:20:47;;;;;;;15.30;6.57;;;;;;;0.38;100.00;101262.63;10218192;29;20854;-68
2022/03/08 03:25:51;;;;;;;13.52;5.88;;;;;;;0.34;100.00;101264.19;10218002;29;20413;-68
2022/03/08 03:30:54;;;;;;;13.77;6.22;;;;;;;0.36;100.00;101265.13;10217709;29;20406;-66
2022/03/08 03:35:58;;;;;;;14.40;6.57;;;;;;;0.35;100.00;101268.47;10217666;29;20427;-69
2022/03/08 03:41:03;;;;;;;15.75;6.53;;;;;;;0.31;100.00;101281.03;10217184;29;20703;-68
2022/03/08 03:46:07;;;;;;;14.02;6.88;;;;;;;0.32;100.00;101278.53;10216157;29;20401;-67
2022/03/08 03:51:12;;;;;;;17.02;7.45;;;;;;;0.23;100.00;101282.34;10217101;29;20433;-66
2022/03/08 03:56:16;;;;;;;13.32;6.53;;;;;;;0.23;100.00;101274.69;10216888;29;20418;-69
2022/03/08 04:01:20;;;;;;;13.80;6.93;;;;;;;0.20;100.00;101282.22;10216639;29;20467;-69
2022/03/08 04:06:23;;;;;;;13.65;7.20;;;;;;;0.21;100.00;101282.28;10216189;29;20410;-72
2022/03/08 04:11:28;;;;;;;16.10;7.70;;;;;;;0.12;100.00;101296.31;10216128;29;20417;-67
2022/03/08 04:16:31;;;;;;;12.43;6.55;;;;;;;0.06;100.00;101286.69;10215826;29;20432;-67
2022/03/08 04:21:34;;;;;;;13.43;6.47;;;;;;;0.10;100.00;101292.81;10216076;29;20417;-69
2022/03/08 04:26:39;;;;;;;14.27;6.80;;;;;;;0.13;100.00;101292.94;10215855;29;20408;-65
2022/03/08 04:31:42;;;;;;;13.75;6.75;;;;;;;0.10;100.00;101287.69;10215420;29;20766;-68
2022/03/08 04:36:45;;;;;;;14.50;6.90;;;;;;;0.05;100.00;101292.59;10215121;29;20436;-69
2022/03/08 04:41:50;;;;;;;13.20;6.65;;;;;;;0.04;100.00;101298.50;10215265;29;20853;-68
2022/03/08 04:46:53;;;;;;;13.65;7.13;;;;;;;0.04;100.00;101301.03;10215103;29;20528;-66
2022/03/08 04:51:57;;;;;;;16.33;7.38;;;;;;;0.09;100.00;101291.91;10215101;29;20497;-68
2022/03/08 04:57:01;;;;;;;16.05;8.02;;;;;;;0.13;100.00;101292.94;10214376;29;20414;-67
2022/03/08 05:02:05;;;;;;;13.88;7.47;;;;;;;0.28;100.00;101293.63;10214646;29;20414;-71
2022/03/08 05:07:08;;;;;;;16.87;9.13;;;;;;;0.29;100.00;101288.63;10214659;29;20472;-65
2022/03/08 05:12:13;;;;;;;15.20;8.90;;;;;;;0.24;100.00;101299.41;10214170;29;20425;-65
2022/03/08 05:17:16;;;;;;;17.85;9.20;;;;;;;0.35;100.00;101299.09;10213837;29;20505;-68
2022/03/08 05:22:20;;;;;;;17.27;9.80;;;;;;;0.28;100.00;101320.03;10213969;29;20402;-70
2022/03/08 05:27:24;;;;;;;16.52;9.60;;;;;;;0.19;100.00;101323.84;10214101;29;20417;-69
2022/03/08 05:32:27;;;;;;;19.88;10.95;;;;;;;0.27;100.00;101325.06;10214053;29;20398;-68
2022/03/08 05:37:31;;;;;;;30.30;14.27;;;;;;;0.36;100.00;101322.94;10213767;29;20882;-69
2022/03/08 05:42:38;;;;;;;16.47;9.87;;;;;;;0.33;100.00;101326.22;10214078;29;20398;-74
2022/03/08 05:47:42;;;;;;;18.87;10.60;;;;;;;0.46;100.00;101341.31;10213434;29;20503;-65
2022/03/08 05:52:45;;;;;;;17.58;10.02;;;;;;;0.48;100.00;101355.03;10213587;29;20414;-69
2022/03/08 05:57:50;;;;;;;17.02;10.07;;;;;;;0.41;100.00;101354.66;10213175;29;20417;-68
2022/03/08 06:02:53;;;;;;;20.17;11.73;;;;;;;0.31;100.00;101357.59;10213133;29;20854;-65
2022/03/08 06:07:56;;;;;;;18.50;10.67;;;;;;;0.31;100.00;101365.25;10218272;29;20744;-67
2022/03/08 06:13:01;;;;;;;19.55;11.45;;;;;;;0.39;100.00;101375.03;10220676;29;20398;-67
2022/03/08 06:18:04;;;;;;;21.33;12.83;;;;;;;0.53;100.00;101380.75;10220407;29;20414;-66
2022/03/08 06:23:08;;;;;;;13.70;9.50;;;;;;;0.52;100.00;101392.66;10220525;29;20409;-66
2022/03/08 06:28:13;;;;;;;16.73;10.18;;;;;;;0.44;100.00;101381.22;10225266;28;20478;-61
2022/03/08 06:33:16;;;;;;;14.17;8.97;;;;;;;0.56;100.00;101379.22;10298117;28;20870;-67
2022/03/08 06:38:19;;;;;;;18.15;10.10;;;;;;;0.70;100.00;101382.41;10299292;28;20484;-70
2022/03/08 06:43:24;;;;;;;12.85;7.82;;;;;;;0.49;100.00;101382.31;10273403;28;20404;-69
2022/03/08 06:48:27;;;;;;;13.77;8.90;;;;;;;0.53;100.00;101388.44;10258439;29;20432;-68
2022/03/08 06:53:32;;;;;;;18.13;8.82;;;;;;;0.72;100.00;101383.34;10277219;28;20410;-70
2022/03/08 06:58:37;;;;;;;14.93;9.20;;;;;;;0.73;100.00;101395.31;10298209;28;20417;-67
2022/03/08 07:03:40;;;;;;;13.02;8.90;;;;;;;0.75;100.00;101391.16;10297698;28;20398;-66
2022/03/08 07:08:43;;;;;;;16.50;9.15;;;;;;;0.65;100.00;101401.75;10298122;28;20747;-71
2022/03/08 07:13:48;;;;;;;12.97;9.03;;;;;;;0.80;100.00;101392.22;10296158;28;20796;-70
2022/03/08 07:18:52;;;;;;;15.90;9.68;;;;;;;0.78;100.00;101407.50;10294302;28;20505;-67
2022/03/08 07:23:56;;;;;;;13.82;8.27;;;;;;;0.95;100.00;101404.00;9950485;28;10000609;-68
2022/03/08 07:29:03;;;;;;;13.60;8.50;;;;;;;1.07;100.00;101406.25;10293658;28;20429;-70
2022/03/08 07:34:06;;;;;;;14.47;8.87;;;;;;;1.20;100.00;101418.78;10293146;28;20880;-67
2022/03/08 07:39:10;;;;;;;20.10;11.32;;;;;;;1.16;100.00;101420.31;10293330;28;20422;-69
2022/03/08 07:44:14;;;;;;;16.70;9.83;;;;;;;1.03;100.00;101428.25;10293172;28;20395;-66
2022/03/08 07:49:18;;;;;;;14.18;9.48;;;;;;;1.08;100.00;101431.88;10293071;28;20422;-67
2022/03/08 07:54:24;;;;;;;15.50;9.27;;;;;;;1.25;100.00;101426.63;10292257;28;21020;-67
2022/03/08 07:59:29;;;;;;;15.05;9.45;;;;;;;1.42;100.00;101423.13;10292913;28;20418;-67
2022/03/08 08:04:32;;;;;;;14.48;9.80;;;;;;;1.28;100.00;101412.28;10292237;28;20452;-67
2022/03/08 08:09:37;;;;;;;13.60;9.50;;;;;;;1.50;100.00;101417.53;10291576;28;20402;-66
2022/03/08 08:14:41;;;;;;;13.57;9.25;;;;;;;1.54;100.00;101416.84;10291529;28;20418;-65
2022/03/08 08:19:45;;;;;;;14.47;8.10;;;;;;;1.61;100.00;101420.53;10291747;28;20406;-70
2022/03/08 08:24:48;;;;;;;12.90;8.93;;;;;;;1.34;100.00;101422.81;10266486;28;20408;-67
2022/03/08 08:29:53;;;;;;;15.13;8.47;;;;;;;1.57;100.00;101422.09;10251687;28;20407;-70
2022/03/08 08:34:56;;;;;;;10.68;5.78;;;;;;;1.75;100.00;101414.31;10252238;28;20404;-69
2022/03/08 08:40:00;;;;;;;11.77;6.60;;;;;;;1.81;100.00;101414.59;10251645;29;20421;-70
2022/03/08 08:45:06;;;;;;;11.57;6.63;;;;;;;1.84;100.00;101407.03;10251230;28;20938;-68
2022/03/08 08:50:10;;;;;;;10.10;6.35;;;;;;;1.87;100.00;101410.59;10251172;28;20418;-68
2022/03/08 08:55:14;;;;;;;9.77;6.20;;;;;;;1.83;100.00;101412.97;10251146;28;20471;-69
2022/03/08 09:00:19;;;;;;;10.95;6.40;;;;;;;1.93;100.00;101403.16;10250842;29;20411;-69
2022/03/08 09:05:22;;;;;;;14.48;7.15;;;;;;;2.02;100.00;101392.44;10251347;28;20931;-67
2022/03/08 09:10:26;;;;;;;12.37;7.30;;;;;;;2.17;100.00;101387.94;10250458;29;20729;-68
2022/03/08 09:15:31;;;;;;;12.10;7.28;;;;;;;2.32;98.94;101378.28;10250098;28;20430;-68
2022/03/08 09:20:34;;;;;;;12.02;7.63;;;;;;;2.37;97.61;101369.09;10250618;29;20726;-71
2022/03/08 09:25:38;;;;;;;11.07;6.80;;;;;;;2.66;97.06;101365.94;10249926;28;20416;-66
2022/03/08 09:30:44;;;;;;;12.60;7.97;;;;;;;3.17;93.69;101351.59;10250158;29;20406;-66
2022/03/08 09:35:48;;;;;;;10.30;7.25;;;;;;;3.72;89.85;101351.78;10266446;28;20422;-67
2022/03/08 09:40:51;;;;;;;15.45;9.90;;;;;;;3.86;85.41;101346.28;10293016;28;20464;-70
2022/03/08 09:45:56;;;;;;;15.82;11.07;;;;;;;3.36;83.75;101346.28;10297364;28;20413;-67
2022/03/08 09:51:00;;;;;;;13.80;8.60;;;;;;;3.64;82.83;101350.66;10298188;28;20430;-70
2022/03/08 09:56:05;;;;;;;16.45;10.52;;;;;;;3.96;82.93;101343.19;10297256;28;20509;-68
2022/03/08 10:01:10;;;;;;;19.88;11.07;;;;;;;4.02;80.89;101345.09;10297597;28;20413;-66
2022/03/08 10:06:14;;;;;;;17.63;11.68;;;;;;;3.93;80.16;101335.41;10298546;28;20749;-69
2022/03/08 10:11:18;;;;;;;15.07;8.03;;;;;;;4.02;78.94;101335.66;10302783;28;20290;-67
2022/03/08 10:16:26;;;;;;;14.27;9.10;;;;;;;4.02;78.76;101325.38;10282696;28;20507;-69
2022/03/08 10:21:34;;;;;;;11.38;7.38;;;;;;;4.08;77.56;101317.00;10259894;29;20411;-64
2022/03/08 10:26:48;;;;;;;11.75;7.05;;;;;;;4.27;76.80;101312.50;10259653;28;20408;-71
2022/03/08 10:32:05;;;;;;;11.43;7.00;;;;;;;4.07;77.58;101313.56;10259430;29;20399;-68
2022/03/08 10:37:13;;;;;;;9.95;6.50;;;;;;;4.09;77.15;101316.22;10259260;28;20427;-68
2022/03/08 10:42:20;;;;;;;12.38;7.40;;;;;;;4.45;78.13;101319.91;10259163;29;20412;-68
2022/03/08 10:47:25;;;;;;;8.82;4.68;;;;;;;4.78;75.59;101318.28;10258921;28;20418;-69
2022/03/08 10:52:30;;;;;;;8.63;3.70;;;;;;;4.76;73.67;101308.78;10260702;28;20224;-68
2022/03/08 10:57:34;;;;;;;9.00;3.60;;;;;;;5.85;71.41;101288.56;10261345;28;20226;-67
2022/03/08 11:02:54;;;;;;;6.57;2.53;;;;;;;5.99;69.55;101286.28;10261148;29;20242;-67
2022/03/08 11:07:58;;;;;;;8.03;4.60;;;;;;;5.62;69.72;101293.97;10257807;28;20230;-71
2022/03/08 11:13:03;;;;;;;7.20;4.13;;;;;;;5.38;70.57;101295.91;10257230;29;20537;-66
2022/03/08 11:18:10;;;;;;;7.47;2.70;;;;;;;6.01;66.75;101282.06;10256962;28;20232;-65
2022/03/08 11:23:14;;;;;;;5.77;2.97;;;;;;;5.86;66.52;101271.41;10257311;29;20307;-68
2022/03/08 11:28:18;;;;;;;8.03;3.10;;;;;;;6.93;65.88;101266.84;10256792;28;20573;-67
2022/03/08 11:33:39;;;;;;;5.40;2.43;;;;;;;8.65;61.06;101254.06;10256660;29;20331;-69
2022/03/08 11:38:44;;;;;;;7.80;3.15;;;;;;;9.58;58.67;101238.59;10253907;28;20424;-67
2022/03/08 11:43:47;;;;;;;4.33;2.10;;;;;;;11.24;52.55;101216.91;10256049;29;20212;-67
2022/03/08 11:48:54;;;;;;;7.13;2.47;;;;;;;9.57;54.51;101241.19;10256222;28;20220;-67
2022/03/08 11:54:02;;;;;;;5.83;2.43;;;;;;;9.32;56.45;101240.97;10255770;29;20238;-71
2022/03/08 11:59:10;;;;;;;5.00;2.00;;;;;;;9.48;53.33;101241.97;10255528;28;20224;-66
2022/03/08 12:04:17;;;;;;;6.53;2.53;;;;;;;9.91;54.29;101238.84;10254882;28;20235;-68
2022/03/08 12:09:22;;;;;;;5.93;2.53;;;;;;;8.82;55.69;101234.41;9912986;28;9999985;-69
2022/03/08 12:14:29;;;;;;;6.80;2.37;;;;;;;11.63;50.62;101219.50;10254744;28;20323;-71
2022/03/08 12:19:37;;;;;;;5.00;2.43;;;;;;;13.27;47.11;101204.16;10255270;28;20263;-66
2022/03/08 12:24:44;;;;;;;5.60;2.33;;;;;;;13.24;47.62;101207.63;10254489;29;20216;-66
2022/03/08 12:29:55;;;;;;;5.27;2.27;;;;;;;13.34;45.89;101216.25;10254495;28;20282;-65
2022/03/08 12:35:03;;;;;;;6.10;2.20;;;;;;;12.04;48.18;101210.81;10277650;28;20220;-65
2022/03/08 12:40:21;;;;;;;6.43;2.20;;;;;;;11.52;48.30;101216.06;10297139;28;20223;-67
2022/03/08 12:45:27;;;;;;;5.90;1.90;;;;;;;12.47;48.08;101225.41;10296857;28;20226;-68
2022/03/08 12:50:33;;;;;;;7.80;1.83;;;;;;;11.57;48.41;101229.91;10296014;28;20306;-66
2022/03/08 12:55:40;;;;;;;4.07;1.53;;;;;;;10.35;50.66;101229.63;10294227;28;20219;-69
2022/03/08 13:00:45;;;;;;;6.00;1.67;;;;;;;9.19;52.48;101233.06;10293022;28;20229;-70
2022/03/08 13:05:51;;;;;;;6.33;1.73;;;;;;;8.93;52.74;101232.81;10286827;28;20220;-66
2022/03/08 13:10:57;;;;;;;6.30;2.17;;;;;;;8.46;54.53;101236.56;10255591;28;20694;-65
2022/03/08 13:16:22;;;;;;;9.60;2.27;;;;;;;8.30;54.37;101237.22;10255869;28;20326;-67
2022/03/08 13:21:27;;;;;;;7.80;1.67;;;;;;;7.96;55.37;101241.03;10256108;28;20572;-69
2022/03/08 13:31:51;;;;;;;4.57;1.60;;;;;;;7.45;57.40;101227.34;10255983;28;20220;-67
2022/03/08 13:36:57;;;;;;;5.90;2.00;;;;;;;7.45;58.20;101234.19;10255974;29;20233;-70
2022/03/08 13:42:00;;;;;;;4.43;1.30;;;;;;;7.39;58.87;101227.22;10255678;28;20562;-67
2022/03/08 13:47:05;;;;;;;5.50;1.70;;;;;;;7.35;58.12;101233.16;10253197;29;20625;-68
2022/03/08 13:52:10;;;;;;;9.73;1.50;;;;;;;7.25;58.20;101223.53;10252354;28;20752;-69
2022/03/08 13:57:13;;;;;;;6.23;1.57;;;;;;;7.45;58.52;101213.53;10252374;29;20242;-69
2022/03/08 14:02:17;;;;;;;3.83;1.13;;;;;;;7.95;58.04;101217.75;10252345;28;20236;-67
2022/03/08 14:07:22;;;;;;;8.77;1.70;;;;;;;8.45;56.39;101203.81;10252142;29;20743;-70
2022/03/08 14:12:26;;;;;;;5.77;1.43;;;;;;;8.98;56.07;101213.03;10251878;28;20220;-70
2022/03/08 14:17:32;;;;;;;6.47;1.37;;;;;;;9.04;55.76;101212.22;10251610;29;20247;-69
2022/03/08 14:22:37;;;;;;;5.17;1.60;;;;;;;8.97;56.11;101208.69;10251891;28;20224;-71
2022/03/08 14:27:49;;;;;;;6.40;1.80;;;;;;;8.68;55.83;101202.34;10264576;28;20236;-68
2022/03/08 14:32:53;;;;;;;6.27;1.10;;;;;;;8.79;56.45;101205.91;10247854;28;20220;-67
2022/03/08 14:38:05;;;;;;;5.00;1.10;;;;;;;8.62;56.81;101197.09;10242844;29;20253;-68
2022/03/08 14:43:09;;;;;;;4.57;1.20;;;;;;;8.37;57.17;101192.50;10242213;28;20220;-69
2022/03/08 14:48:12;;;;;;;21.13;7.93;;;;;;;7.91;57.67;101197.88;10239769;29;20307;-71
2022/03/08 14:53:17;;;;;;;7.23;1.50;;;;;;;7.85;57.77;101197.81;10243530;28;20613;-67
2022/03/08 14:58:20;;;;;;;3.93;1.33;;;;;;;7.80;57.54;101205.47;10240352;29;20242;-67
2022/03/08 15:03:23;;;;;;;4.20;0.80;;;;;;;7.81;57.51;101208.94;10239141;28;20227;-67
2022/03/08 15:08:28;;;;;;;5.73;1.47;;;;;;;7.60;57.55;101206.03;10240158;29;20221;-69
2022/03/08 15:13:32;;;;;;;3.63;1.20;;;;;;;7.67;58.82;101207.84;10241047;28;20224;-68
2022/03/08 15:18:35;;;;;;;5.77;1.50;;;;;;;7.69;58.25;101216.50;10240162;29;20781;-67
2022/03/08 15:23:40;;;;;;;4.00;0.90;;;;;;;7.59;58.40;101218.06;10237507;28;20754;-69
2022/03/08 15:28:43;;;;;;;6.27;1.00;;;;;;;7.39;59.46;101223.75;10228086;29;20220;-69
2022/03/08 15:33:48;;;;;;;4.93;1.13;;;;;;;7.32;61.05;101222.78;10237107;28;20307;-65
2022/03/08 15:38:54;;;;;;;5.97;1.57;;;;;;;7.24;61.49;101226.97;10236217;28;20231;-68
2022/03/08 15:43:58;;;;;;;8.93;1.13;;;;;;;7.01;62.24;101217.94;10239757;28;20213;-64
2022/03/08 15:49:01;;;;;;;9.30;2.50;;;;;;;6.97;62.61;101209.28;10233823;28;20248;-66
2022/03/08 15:54:06;;;;;;;3.10;1.03;;;;;;;6.97;63.14;101205.84;10234618;28;20219;-66
2022/03/08 15:59:10;;;;;;;6.20;1.20;;;;;;;6.84;63.04;101209.91;10231545;29;20561;-66
2022/03/08 16:04:14;;;;;;;3.00;1.07;;;;;;;6.76;63.64;101205.44;10253472;28;20811;-64
2022/03/08 16:09:19;;;;;;;4.50;1.20;;;;;;;6.70;64.77;101203.63;10258028;28;20228;-63
2022/03/08 16:14:23;;;;;;;5.80;1.57;;;;;;;6.70;65.24;101201.03;10254074;28;20236;-67
2022/03/08 16:19:26;;;;;;;6.17;1.30;;;;;;;6.67;64.24;101203.56;10254544;29;20227;-67
2022/03/08 16:24:34;;;;;;;3.80;1.20;;;;;;;6.73;64.26;101210.56;10257438;28;20607;-66
2022/03/08 16:29:38;;;;;;;3.73;1.00;;;;;;;6.72;64.16;101203.63;10293989;28;20314;-66
2022/03/08 16:34:41;;;;;;;6.37;1.20;;;;;;;6.64;64.96;101211.22;10268376;28;20227;-67
2022/03/08 16:39:46;;;;;;;9.43;1.50;;;;;;;6.50;65.35;101207.53;10253816;28;20242;-65
2022/03/08 16:44:49;;;;;;;7.50;1.47;;;;;;;6.51;65.15;101201.53;10253617;28;20853;-64
2022/03/08 16:49:54;;;;;;;5.77;1.97;;;;;;;6.39;65.69;101197.81;10252878;28;20206;-65
2022/03/08 16:54:58;;;;;;;11.60;1.77;;;;;;;6.40;66.62;101203.00;10253432;28;20196;-64
2022/03/08 17:00:03;;;;;;;6.03;1.77;;;;;;;6.34;67.29;101205.47;10253252;28;20251;-64
2022/03/08 17:05:09;;;;;;;10.70;1.97;;;;;;;6.38;67.19;101209.88;10253345;28;20275;-67
2022/03/08 17:10:13;;;;;;;6.23;1.73;;;;;;;6.35;67.45;101217.50;10253452;28;20295;-67
2022/03/08 17:15:16;;;;;;;8.47;2.37;;;;;;;6.37;66.98;101225.28;10254594;28;20232;-69
2022/03/08 17:20:20;;;;;;;8.00;1.97;;;;;;;6.38;67.36;101220.19;10253078;29;20354;-72
2022/03/08 17:25:25;;;;;;;9.00;1.70;;;;;;;6.32;68.78;101232.94;10252752;29;20327;-70
2022/03/08 17:30:28;;;;;;;7.00;1.80;;;;;;;6.31;68.93;101236.34;10252228;29;20672;-69
2022/03/08 17:35:33;;;;;;;9.03;2.17;;;;;;;6.34;68.87;101231.25;10253302;28;20298;-66
2022/03/08 17:40:38;;;;;;;9.83;2.00;;;;;;;6.35;68.66;101234.72;10252206;28;20751;-67
2022/03/08 17:46:01;;;;;;;11.77;4.57;;;;;;;6.28;67.73;101231.09;10252740;28;20599;-70
2022/03/08 17:51:07;;;;;;;6.50;2.17;;;;;;;6.23;68.76;101240.47;10246207;28;20274;-68
2022/03/08 17:56:12;;;;;;;6.47;2.10;;;;;;;6.32;67.85;101230.34;10215214;29;20216;-66
2022/03/08 18:01:15;;;;;;;7.30;2.20;;;;;;;6.26;68.47;101240.53;10213211;29;20233;-68
2022/03/08 18:06:24;;;;;;;7.57;2.10;;;;;;;6.22;68.54;101233.56;10231030;29;20311;-66
2022/03/08 18:11:29;;;;;;;8.37;2.20;;;;;;;6.27;69.72;101228.50;10259566;28;20224;-69
2022/03/08 18:16:32;;;;;;;8.73;2.27;;;;;;;6.24;69.69;101238.75;10258994;28;20240;-67
2022/03/08 18:21:35;;;;;;;6.53;2.03;;;;;;;6.23;70.97;101237.88;10259034;28;20259;-63
2022/03/08 18:26:41;;;;;;;7.50;2.47;;;;;;;6.19;71.09;101246.41;10259159;28;20220;-67
2022/03/08 18:31:44;;;;;;;8.27;2.60;;;;;;;6.17;70.62;101242.91;10259151;28;20251;-69
2022/03/08 18:36:48;;;;;;;7.83;2.07;;;;;;;6.18;70.79;101249.81;10258567;29;20216;-68
2022/03/08 18:41:53;;;;;;;11.33;3.33;;;;;;;6.18;71.72;101248.94;10258429;28;20315;-68
2022/03/08 18:46:57;;;;;;;6.63;2.40;;;;;;;6.07;72.40;101250.41;10258654;28;20240;-66
2022/03/08 18:52:00;;;;;;;8.13;2.80;;;;;;;6.10;72.24;101250.47;10257954;28;20618;-67
2022/03/08 18:57:05;;;;;;;9.87;3.30;;;;;;;6.09;71.67;101243.59;10261973;28;20286;-65
2022/03/08 19:02:14;;;;;;;7.87;2.63;;;;;;;6.13;70.93;101241.09;10261422;28;20232;-68
2022/03/08 19:07:17;;;;;;;7.93;3.10;;;;;;;6.15;70.92;101249.75;10257659;28;20216;-68
2022/03/08 19:12:22;;;;;;;12.17;3.30;;;;;;;6.10;70.24;101251.34;10257066;28;20219;-67
2022/03/08 19:17:25;;;;;;;14.13;6.13;;;;;;;6.10;71.01;101246.19;10257061;28;20696;-69
2022/03/08 19:22:28;;;;;;;10.67;3.50;;;;;;;6.11;70.13;101242.78;10257068;28;20228;-67
2022/03/08 19:27:33;;;;;;;9.30;3.80;;;;;;;6.16;69.84;101238.59;10257146;28;20682;-66
2022/03/08 19:32:37;;;;;;;9.93;3.17;;;;;;;6.13;71.08;101248.84;10256815;28;20234;-68
2022/03/08 19:37:45;;;;;;;12.97;4.43;;;;;;;6.16;70.63;101248.88;10256625;28;20239;-70
2022/03/08 19:42:50;;;;;;;12.20;3.63;;;;;;;6.16;72.32;101246.31;10256375;28;20228;-67
2022/03/08 19:47:53;;;;;;;13.23;4.47;;;;;;;6.17;71.86;101248.06;10256198;28;20290;-69
2022/03/08 19:52:57;;;;;;;13.70;5.47;;;;;;;6.15;70.30;101256.59;10256784;28;20220;-69
2022/03/08 19:58:02;;;;;;;12.60;4.90;;;;;;;6.17;70.17;101258.38;10255698;28;20244;-67
2022/03/08 20:03:07;;;;;;;14.47;5.57;;;;;;;6.20;69.88;101260.13;10255607;28;20219;-67
2022/03/08 20:08:12;;;;;;;16.23;6.07;;;;;;;6.22;69.93;101259.34;10256284;28;20239;-69
2022/03/08 20:13:23;;;;;;;11.93;5.50;;;;;;;6.17;69.79;101250.66;10223517;28;20231;-67
2022/03/08 20:18:26;;;;;;;15.83;6.97;;;;;;;6.19;69.70;101253.25;10215279;29;20683;-68
2022/03/08 20:23:29;;;;;;;12.87;6.07;;;;;;;6.18;70.39;101265.25;10227220;28;20232;-70
2022/03/08 20:28:34;;;;;;;18.30;7.10;;;;;;;6.14;71.51;101249.72;10254309;28;20303;-67
2022/03/08 20:33:37;;;;;;;20.27;7.23;;;;;;;6.10;70.71;101247.88;10254358;28;20247;-70
2022/03/08 20:38:41;;;;;;;17.17;6.83;;;;;;;6.09;70.65;101252.16;10254125;28;20258;-67
2022/03/08 20:43:46;;;;;;;26.33;13.80;;;;;;;6.09;70.28;101252.16;10253813;29;20246;-68
2022/03/08 20:48:49;;;;;;;20.90;7.97;;;;;;;6.05;71.08;101246.94;10254035;28;20230;-66
2022/03/08 20:53:54;;;;;;;19.77;9.03;;;;;;;6.01;70.81;101238.25;10253778;28;20232;-66
2022/03/08 20:58:58;;;;;;;19.07;7.93;;;;;;;5.97;71.06;101236.44;10253531;29;20222;-67
2022/03/08 21:04:03;;;;;;;16.23;7.80;;;;;;;5.98;72.09;101235.63;10253788;28;20567;-69
2022/03/08 21:09:06;;;;;;;16.87;7.50;;;;;;;5.87;71.84;101231.91;10253111;28;20717;-65
2022/03/08 21:14:11;;;;;;;21.53;6.57;;;;;;;5.87;71.79;101233.66;10214912;28;20316;-67
2022/03/08 21:19:15;;;;;;;18.63;7.93;;;;;;;5.84;72.43;101235.31;10213543;29;20224;-66
2022/03/08 21:24:19;;;;;;;13.57;6.77;;;;;;;5.93;72.75;101236.34;10213972;29;20213;-67
2022/03/08 21:29:24;;;;;;;16.60;7.37;;;;;;;5.94;72.94;101233.81;10213511;29;20773;-68
2022/03/08 21:34:30;;;;;;;15.77;6.90;;;;;;;5.86;73.19;101227.63;10213292;29;20252;-69
2022/03/08 21:39:34;;;;;;;18.50;5.83;;;;;;;5.88;72.77;101228.53;10220724;29;20668;-68
2022/03/08 21:44:38;;;;;;;13.83;5.27;;;;;;;5.84;73.58;101243.03;10221448;29;20590;-68
2022/03/08 21:49:42;;;;;;;16.60;5.27;;;;;;;5.89;73.34;101243.13;10221030;29;20263;-67
2022/03/08 21:54:45;;;;;;;10.70;5.07;;;;;;;5.88;73.04;101246.56;10220773;29;20756;-66
2022/03/08 21:59:50;;;;;;;12.27;5.50;;;;;;;5.89;72.96;101256.00;10220776;29;20225;-69
2022/03/08 22:04:53;;;;;;;13.83;5.40;;;;;;;5.83;74.01;101253.31;10220459;29;20220;-66
2022/03/08 22:09:57;;;;;;;18.97;5.93;;;;;;;5.82;74.07;101262.72;10225144;29;20682;-69
2022/03/08 22:15:02;;;;;;;14.33;5.67;;;;;;;5.76;74.85;101257.38;10260034;28;20682;-67
2022/03/08 22:20:09;;;;;;;12.87;5.13;;;;;;;5.79;75.40;101254.03;10259587;28;20231;-69
2022/03/08 22:25:12;;;;;;;15.67;5.67;;;;;;;5.76;75.37;101259.13;10259637;28;20220;-65
2022/03/08 22:30:17;;;;;;;13.57;5.97;;;;;;;5.76;78.74;101254.81;10259418;29;20236;-65
2022/03/08 22:35:21;;;;;;;11.40;5.60;;;;;;;5.66;80.36;101258.00;10259278;28;20216;-68
2022/03/08 22:40:24;;;;;;;14.60;5.60;;;;;;;5.67;80.42;101251.16;10259283;28;20236;-70
2022/03/08 22:45:29;;;;;;;12.67;5.43;;;;;;;5.64;79.39;101243.38;10258850;29;20287;-65
2022/03/08 22:55:54;;;;;;;10.43;5.07;;;;;;;5.31;81.83;101232.25;10258674;29;20227;-67
2022/03/08 23:00:58;;;;;;;12.53;5.63;;;;;;;5.55;80.67;101228.59;10258073;28;20221;-67
2022/03/08 23:06:02;;;;;;;10.87;5.23;;;;;;;5.64;80.48;101223.63;10258642;28;20208;-69
2022/03/08 23:11:06;;;;;;;10.30;5.03;;;;;;;5.55;82.09;101232.84;10257888;28;20530;-66
2022/03/08 23:16:10;;;;;;;14.27;4.53;;;;;;;5.69;79.78;101234.91;10257464;28;20238;-66
2022/03/08 23:21:14;;;;;;;11.50;4.97;;;;;;;5.68;78.78;101224.56;10257732;28;20232;-69
2022/03/08 23:26:18;;;;;;;11.53;4.93;;;;;;;5.65;77.92;101221.94;10257430;28;20200;-65
2022/03/08 23:31:22;;;;;;;15.27;5.40;;;;;;;5.59;79.00;101226.97;10257489;28;20640;-67